Tiempo atmosférico en la estación meteorológica de Monreal/Elo, Navarra (585 m.)



Fecha
DESCASC
Temp. máxima en grados centígrados (hora)
DESCASC
Temp. mínima en grados centígrados (hora)
DESCASC
Temp. media en grados centígrados
DESCASC
Racha de viento máxima en m/sg (hora)
DESCASC
Velocidad máxima media en intervalos de 10 minutos(hora)
DESCASC
Precipitaciones diarias en mm
DESCASC
Precipitaciones de 00:00 a 06:00 en mm
DESCASC
Precipitaciones de 06:00 a 12:00 en mm
DESCASC
Precipitaciones de 12:00 a 18:00 en mm
DESCASC
Precipitaciones de 18:00 a 24:00 en mm
DESCASC
18-08-2019 31.2 (13:10) 16 (23:59) 23.6 13.61 (23:20) 10.28 (17:50) 0 0 0 0 0
17-08-2019 35.1 (17:20) 14.4 (06:00) 24.7 11.11 (11:40) 6.94 (18:50) 0 0 0 0 0
16-08-2019 32.7 (18:40) 8.2 (07:50) 20.5 9.72 (21:20) 7.5 (21:20) 0 0 0 0 0
15-08-2019 23.5 (15:50) 13.9 (00:00) 18.7 14.17 (14:00) 9.17 (14:00) 0 0 0 0 0
14-08-2019 27.7 (17:00) 8.3 (00:00) 18 14.72 (20:00) 10.83 (18:20) 0 0 0 0 0
13-08-2019 21 (16:20) 11.6 (00:00) 16.3 13.33 (16:40) 9.72 (20:00) 0 0 0 0 0
12-08-2019 19.7 (14:20) 13.4 (00:00) 16.6 17.22 (15:30) 11.67 (12:40) 0 0 0 0 0
11-08-2019 24.2 (16:10) 15.4 (00:00) 19.8 12.22 (16:20) 8.89 (17:30) 0.4 0 0.4 0 0
10-08-2019 26.7 (16:50) 13.6 (00:00) 20.2 11.39 (17:10) 8.33 (18:00) 0 0 0 0 0
09-08-2019 34.2 (16:00) 17.1 (00:00) 25.7 15 (22:10) 9.17 (20:00) 4 0 0 0 4
08-08-2019 32.8 (18:40) 17.8 (00:00) 25.3 10.28 (16:00) 6.67 (23:50) 0 0 0 0 0
07-08-2019 29.9 (15:00) 17.3 (00:00) 23.6 11.94 (00:50) 8.33 (01:00) 0 0 0 0 0
06-08-2019 33.7 (16:40) 16.3 (00:00) 25 12.78 (23:20) 9.72 (20:00) 0 0 0 0 0
05-08-2019 32.6 (15:50) 15.9 (00:00) 24.2 13.61 (18:30) 11.11 (19:10) 0 0 0 0 0
04-08-2019 32.3 (16:30) 15.9 (00:00) 24.1 15.28 (19:10) 11.39 (18:50) 0 0 0 0 0
03-08-2019 34.3 (17:40) 12 (00:00) 23.1 9.72 (19:20) 6.94 (19:20) 0 0 0 0 0
02-08-2019 27.7 (17:20) 15.8 (00:00) 21.8 11.11 (16:20) 8.33 (16:20) 0 0 0 0 0
01-08-2019 29.6 (17:50) 13.1 (00:00) 21.4 13.89 (19:00) 11.11 (19:00) 4 0 4 0 0
31-07-2019 27.4 (15:00) 11 (00:00) 19.2 9.44 (22:00) 7.22 (20:40) 0 0 0 0 0
30-07-2019 20.3 (13:50) 13.3 (00:00) 16.8 15 (17:20) 11.39 (19:10) 0 0 0 0 0
29-07-2019 30.9 (16:20) 10.2 (00:00) 20.5 14.17 (17:30) 10.83 (17:30) 0 0 0 0 0
28-07-2019 21.8 (16:10) 12.2 (00:00) 17 11.11 (16:40) 7.5 (01:30) 0 0 0 0 0
27-07-2019 17.2 (15:10) 13.4 (00:00) 15.3 11.94 (20:40) 9.17 (15:00) 3.4 0.2 0.4 2.8 0
26-07-2019 24.5 (13:30) 16 (00:00) 20.3 13.61 (18:10) 10.28 (16:50) 1.2 0 0.2 1 0
25-07-2019 -- (--) -- (--) -- -- (--) -- (--) -- -- -- 0 1
24-07-2019 -- (--) -- (--) -- -- (--) -- (--) -- -- -- -- --
23-07-2019 -- (--) -- (--) -- -- (--) -- (--) -- 0 0 0 --
22-07-2019 35.9 (17:30) 17.2 (00:00) 26.6 11.39 (16:50) 7.22 (14:30) 0 0 0 0 0

Gráficas

Temp. máximas Temp. mínimas Temp. medias Precipitaciones Rachas de viento máximas Velocidades máximas media en intervalos de 10 minutos

Datos horarios

Fecha y hora oficial Temperatura (ºC) Velocidad del viento (km/h) Dirección del viento Racha (km/h) Dirección de racha Precipitación (mm) Presión (hPa) Tendencia (hPa) Humedad (%)
2019-08-20 23:00:00 14.9 22 Noroeste 27 Noroeste 0 -- -- 82
2019-08-20 22:00:00 15.5 19 Noroeste 28 Noroeste 0 -- -- 76
2019-08-20 21:00:00 16.8 24 Noroeste 35 Noroeste 0 -- -- 71
2019-08-20 20:00:00 18.3 24 Noroeste 44 Noroeste 0 -- -- 65
2019-08-20 19:00:00 18.7 23 Noroeste 42 Noroeste 0 -- -- 64
2019-08-20 18:00:00 20 26 Noroeste 41 Norte 0 -- -- 59
2019-08-20 17:00:00 20.6 28 Noroeste 41 Noroeste 0 -- -- 58
2019-08-20 16:00:00 20.4 25 Norte 42 Noroeste 0 -- -- 56
2019-08-20 15:00:00 21.5 21 Norte 41 Noroeste 0 -- -- 53
2019-08-20 14:00:00 21.2 18 Noroeste 40 Noroeste 0 -- -- 53
2019-08-20 13:00:00 19.8 23 Norte 33 Noroeste 0 -- -- 59
2019-08-20 12:00:00 17.5 21 Norte 42 Noroeste 0 -- -- 67
2019-08-20 11:00:00 16.8 23 Noroeste 45 Noroeste 0 -- -- 76
2019-08-20 10:00:00 14.4 24 Noroeste 37 Noroeste 0.2 -- -- 86
2019-08-20 09:00:00 13.4 21 Noroeste 32 Noroeste 0 -- -- 91
2019-08-20 08:00:00 13.5 8 Noroeste 30 Noroeste 0 -- -- 91
2019-08-20 07:00:00 13.4 20 Noroeste 29 Noroeste 0 -- -- 93
2019-08-20 06:00:00 13.4 17 Noroeste 30 Oeste 0.4 -- -- 94
2019-08-20 05:00:00 13.5 17 Noroeste 27 Oeste 0.6 -- -- 93
2019-08-20 04:00:00 13.9 19 Noroeste 28 Noroeste 0.4 -- -- 91
2019-08-20 03:00:00 13.8 17 Noroeste 35 Oeste 0.8 -- -- 92
2019-08-20 02:00:00 14.9 25 Noroeste 33 Noroeste 0 -- -- 82
2019-08-20 01:00:00 15.3 22 Noroeste 31 Oeste 0 -- -- 80
2019-08-20 00:00:00 15.5 18 Noroeste 24 Noroeste 0 -- -- 80
2019-08-19 23:00:00 15.8 18 Noroeste 30 Noroeste 0 -- -- 80
2019-08-19 22:00:00 16 18 Noroeste 29 Noroeste 0 -- -- 78
2019-08-19 21:00:00 16.7 22 Noroeste 33 Noroeste 0 -- -- 74
2019-08-19 20:00:00 17.4 22 Noroeste 37 Oeste 0 -- -- 71
2019-08-19 19:00:00 18.4 22 Noroeste 37 Noroeste 0 -- -- 68
2019-08-19 18:00:00 18.9 25 Noroeste 35 Noroeste 0 -- -- 66
2019-08-19 17:00:00 18.2 24 Noroeste 36 Noroeste 0 -- -- 69
2019-08-19 16:00:00 19.1 21 Noroeste 35 Noroeste 0 -- -- 61
2019-08-19 15:00:00 19.4 22 Noroeste 33 Noroeste 0 -- -- 57
2019-08-19 14:00:00 19.2 24 Noroeste 33 Noroeste 0 -- -- 55
2019-08-19 13:00:00 19.6 22 Noroeste 31 Noroeste 0 -- -- 54
2019-08-19 12:00:00 18.3 24 Noroeste 40 Noroeste 0 -- -- 57
2019-08-19 11:00:00 18.2 22 Noroeste 35 Noroeste 0 -- -- 57
2019-08-19 10:00:00 17.1 24 Noroeste 38 Noroeste 0 -- -- 62
2019-08-19 09:00:00 15 26 Noroeste 33 Noroeste 0 -- -- 71
2019-08-19 08:00:00 14.4 24 Noroeste 36 Noroeste 0 -- -- 75
2019-08-19 07:00:00 14.4 27 Noroeste 38 Noroeste 0 -- -- 80
2019-08-19 06:00:00 14.5 25 Noroeste 37 Noroeste 0 -- -- 82
2019-08-19 05:00:00 14.3 26 Noroeste 35 Noroeste 0 -- -- 85
2019-08-19 04:00:00 14.3 21 Noroeste 33 Noroeste 0 -- -- 85
2019-08-19 03:00:00 14.3 24 Noroeste 36 Noroeste 0 -- -- 84
2019-08-19 02:00:00 15.2 30 Noroeste 41 Noroeste 0 -- -- 81
2019-08-19 01:00:00 15.8 28 Noroeste 40 Noroeste 0 -- -- 83
2019-08-19 00:00:00 16 30 Noroeste 49 Noroeste 0 -- -- 84
2019-08-18 23:00:00 17.2 36 Noroeste 46 Noroeste 0 -- -- 80
2019-08-18 22:00:00 18.3 29 Noroeste 43 Noroeste 0 -- -- 80
2019-08-18 21:00:00 18.8 35 Noroeste 47 Noroeste 0 -- -- 79
2019-08-18 20:00:00 20.2 29 Noroeste 46 Noroeste 0 -- -- 74
2019-08-18 19:00:00 21.5 33 Noroeste 48 Noroeste 0 -- -- 72
2019-08-18 18:00:00 22.8 32 Noroeste 46 Noroeste 0 -- -- 69
2019-08-18 17:00:00 24.5 31 Noroeste 44 Noroeste 0 -- -- 65
2019-08-18 16:00:00 25.2 27 Noroeste 48 Noroeste 0 -- -- 62
2019-08-18 15:00:00 27.3 34 Oeste 45 Oeste 0 -- -- 56
2019-08-18 14:00:00 29.5 21 Oeste 33 Oeste 0 -- -- 47
2019-08-18 13:00:00 30.3 13 Sur 26 Sur 0 -- -- 44
2019-08-18 12:00:00 28.9 12 Sudeste 24 Sudeste 0 -- -- 50
2019-08-18 11:00:00 26.4 6 Sudeste 14 Sudeste 0 -- -- 56
2019-08-18 10:00:00 22.7 11 Noroeste 15 Noroeste 0 -- -- 71
2019-08-18 09:00:00 20 4 Norte 7 Noroeste 0 -- -- 82
2019-08-18 08:00:00 17.4 3 Noroeste 9 Noroeste 0 -- -- 89
2019-08-18 07:00:00 17.4 2 Este 13 Sudeste 0 -- -- 92
2019-08-18 06:00:00 16.5 7 Sudeste 10 Este 0 -- -- 91
2019-08-18 05:00:00 17.3 3 Este 6 Este 0 -- -- 88
2019-08-18 04:00:00 17.6 3 Sudeste 12 Sudeste 0 -- -- 87
2019-08-18 03:00:00 17.7 5 Sudeste 9 Este 0 -- -- 86
2019-08-18 02:00:00 18.8 5 Sudeste 8 Sudeste 0 -- -- 83
2019-08-18 01:00:00 20.3 4 Norte 8 Noroeste 0 -- -- 77
2019-08-18 00:00:00 21.3 6 Norte 17 Noroeste 0 -- -- 74
2019-08-17 23:00:00 22.9 15 Noroeste 20 Noroeste 0 -- -- 69
2019-08-17 22:00:00 24.5 14 Noroeste 21 Noroeste 0 -- -- 63
2019-08-17 21:00:00 27.1 18 Noroeste 25 Oeste 0 -- -- 55
2019-08-17 20:00:00 29.6 21 Noroeste 30 Oeste 0 -- -- 46
2019-08-17 19:00:00 32.4 21 Oeste 32 Oeste 0 -- -- 39
2019-08-17 18:00:00 34.8 10 Sudoeste 24 Sur 0 -- -- 28
2019-08-17 17:00:00 34.9 12 Sudoeste 27 Sur 0 -- -- 24
2019-08-17 16:00:00 34.7 10 Sur 27 Sur 0 -- -- 28
2019-08-17 15:00:00 33.9 11 Sur 27 Sur 0 -- -- 29
2019-08-17 14:00:00 32.4 16 Sur 30 Sur 0 -- -- 38
2019-08-17 13:00:00 30.7 15 Sudeste 29 Sur 0 -- -- 45
2019-08-17 12:00:00 28.6 22 Sudeste 40 Sur 0 -- -- 50
2019-08-17 11:00:00 26.7 18 Sudeste 32 Sur 0 -- -- 57
2019-08-17 10:00:00 24.2 9 Sudeste 16 Sur 0 -- -- 61
2019-08-17 09:00:00 20 4 Sudeste 10 Sur 0 -- -- 71
2019-08-17 08:00:00 15 10 Este 16 Sudeste 0 -- -- 90
2019-08-17 07:00:00 14.7 6 Sudeste 12 Sudeste 0 -- -- 89
2019-08-17 06:00:00 14.4 10 Sudeste 11 Sudeste 0 -- -- 89
2019-08-17 05:00:00 15.7 2 Oeste 13 Sudeste 0 -- -- 85
2019-08-17 04:00:00 16.2 5 Sudeste 12 Sudeste 0 -- -- 83
2019-08-17 03:00:00 17.4 2 Sudoeste 17 Noroeste 0 -- -- 80
2019-08-17 02:00:00 18.4 18 Noroeste 29 Noroeste 0 -- -- 71
2019-08-17 01:00:00 19.7 23 Noroeste 32 Noroeste 0 -- -- 74
2019-08-17 00:00:00 20.9 24 Noroeste 34 Noroeste 0 -- -- 77
2019-08-16 23:00:00 21.7 21 Noroeste 32 Noroeste 0 -- -- 72
2019-08-16 22:00:00 23.9 21 Noroeste 35 Oeste 0 -- -- 61
2019-08-16 21:00:00 26.5 15 Noroeste 25 Oeste 0 -- -- 49
2019-08-16 20:00:00 30.3 14 Noroeste 22 Norte 0 -- -- 33
2019-08-16 19:00:00 31.7 13 Noroeste 20 Oeste 0 -- -- 31
2019-08-16 18:00:00 32.1 10 Noroeste 24 Noroeste 0 -- -- 31
2019-08-16 17:00:00 31.8 7 Noroeste 23 Sudoeste 0 -- -- 32
2019-08-16 16:00:00 31.8 12 Oeste 22 Oeste 0 -- -- 31
2019-08-16 15:00:00 31.2 5 Noroeste 19 Sudeste 0 -- -- 30
2019-08-16 14:00:00 28.9 8 Oeste 16 Oeste 0 -- -- 32
2019-08-16 13:00:00 26.2 10 Noroeste 19 Noroeste 0 -- -- 38
2019-08-16 12:00:00 23.4 11 Noroeste 16 Noroeste 0 -- -- 50
2019-08-16 11:00:00 21.1 10 Oeste 14 Oeste 0 -- -- 57
2019-08-16 10:00:00 16.7 8 Este 12 Este 0 -- -- 70
2019-08-16 09:00:00 13 8 Este 13 Sudeste 0 -- -- 86
2019-08-16 08:00:00 8.3 8 Sudeste 10 Sudeste 0 -- -- 95
2019-08-16 07:00:00 8.8 3 Sudeste 10 Sudeste 0 -- -- 94
2019-08-16 06:00:00 9 9 Sudeste 11 Sudeste 0 -- -- 94
2019-08-16 05:00:00 10.5 5 Sudeste 17 Noroeste 0 -- -- 92
2019-08-16 04:00:00 12.2 16 Noroeste 24 Noroeste 0 -- -- 89
2019-08-16 03:00:00 12.8 21 Noroeste 29 Noroeste 0 -- -- 87
2019-08-16 02:00:00 13 21 Noroeste 30 Noroeste 0 -- -- 87
2019-08-16 01:00:00 13.9 21 Noroeste 30 Noroeste 0 -- -- 82
2019-08-16 00:00:00 14 22 Noroeste 29 Noroeste 0 -- -- 81
2019-08-15 23:00:00 14.7 22 Noroeste 31 Noroeste 0 -- -- 78
2019-08-15 22:00:00 15.3 22 Noroeste 32 Noroeste 0 -- -- 75
2019-08-15 21:00:00 17.2 22 Noroeste 40 Noroeste 0 -- -- 68
2019-08-15 20:00:00 18.3 31 Noroeste 46 Noroeste 0 -- -- 63
2019-08-15 19:00:00 20.9 30 Norte 51 Noroeste 0 -- -- 55
2019-08-15 18:00:00 22.5 27 Noroeste 42 Norte 0 -- -- 50
2019-08-15 17:00:00 22.5 30 Norte 48 Norte 0 -- -- 51
2019-08-15 16:00:00 23 31 Noroeste 50 Noroeste 0 -- -- 50
2019-08-15 15:00:00 22.8 32 Noroeste 45 Noroeste 0 -- -- 51
2019-08-15 14:00:00 21.8 33 Noroeste 51 Noroeste 0 -- -- 53
2019-08-15 13:00:00 21.5 31 Noroeste 42 Noroeste 0 -- -- 54
2019-08-15 12:00:00 19.6 28 Noroeste 44 Noroeste 0 -- -- 63
2019-08-15 11:00:00 18.9 19 Noroeste 32 Noroeste 0 -- -- 72
2019-08-15 10:00:00 18.1 21 Noroeste 34 Noroeste 0 -- -- 79
2019-08-15 09:00:00 18.1 24 Noroeste 33 Noroeste 0 -- -- 83
2019-08-15 08:00:00 17.6 18 Noroeste 22 Noroeste 0 -- -- 85
2019-08-15 07:00:00 17.6 13 Noroeste 23 Oeste 0 -- -- 84
2019-08-15 06:00:00 17.4 15 Noroeste 27 Noroeste 0 -- -- 86
2019-08-15 05:00:00 17.6 17 Noroeste 24 Noroeste 0 -- -- 86
2019-08-15 04:00:00 17.4 16 Noroeste 23 Noroeste 0 -- -- 87
2019-08-15 03:00:00 17.3 11 Noroeste 28 Oeste 0 -- -- 85
2019-08-15 02:00:00 18 15 Noroeste 25 Noroeste 0 -- -- 81
2019-08-15 01:00:00 18.2 19 Noroeste 28 Noroeste 0 -- -- 78
2019-08-15 00:00:00 18.7 17 Noroeste 38 Noroeste 0 -- -- 73
2019-08-14 23:00:00 19.2 24 Noroeste 32 Noroeste 0 -- -- 68
2019-08-14 22:00:00 19.6 19 Noroeste 40 Noroeste 0 -- -- 69
2019-08-14 21:00:00 21 30 Noroeste 46 Noroeste 0 -- -- 61
2019-08-14 20:00:00 22.7 38 Noroeste 53 Noroeste 0 -- -- 53
2019-08-14 19:00:00 24.2 32 Norte 48 Norte 0 -- -- 43
2019-08-14 18:00:00 25.6 30 Norte 44 Norte 0 -- -- 43
2019-08-14 17:00:00 27.7 27 Noroeste 44 Noroeste 0 -- -- 38
2019-08-14 16:00:00 27.1 30 Noroeste 46 Noroeste 0 -- -- 37
2019-08-14 15:00:00 26.9 24 Noroeste 39 Noroeste 0 -- -- 36
2019-08-14 14:00:00 26.1 18 Noroeste 26 Oeste 0 -- -- 35
2019-08-14 13:00:00 25.2 15 Noroeste 23 Noroeste 0 -- -- 34
2019-08-14 12:00:00 23.1 7 Noroeste 13 Sudoeste 0 -- -- 40
2019-08-14 11:00:00 19.9 6 Oeste 10 Oeste 0 -- -- 48
2019-08-14 10:00:00 16.2 5 Sudeste 9 Sudeste 0 -- -- 69
2019-08-14 09:00:00 13 3 Norte 9 Sudeste 0 -- -- 83
2019-08-14 08:00:00 8.6 10 Sudeste 12 Sudeste 0 -- -- 95
2019-08-14 07:00:00 8.6 5 Sudeste 8 Este 0 -- -- 93
2019-08-14 06:00:00 9.4 5 Sudeste 7 Sudeste 0 -- -- 94
2019-08-14 05:00:00 9.8 2 Este 6 Sudeste 0 -- -- 91
2019-08-14 04:00:00 10.1 5 Sudeste 6 Sudeste 0 -- -- 92
2019-08-14 03:00:00 11.2 5 Oeste 26 Noroeste 0 -- -- 87
2019-08-14 02:00:00 12.1 22 Noroeste 26 Noroeste 0 -- -- 86
2019-08-14 01:00:00 11.9 16 Noroeste 22 Noroeste 0 -- -- 87
2019-08-14 00:00:00 13 14 Noroeste 25 Noroeste 0 -- -- 83
2019-08-13 23:00:00 13.8 18 Noroeste 24 Noroeste 0 -- -- 79
2019-08-13 22:00:00 15.1 17 Noroeste 40 Norte 0 -- -- 72
2019-08-13 21:00:00 16.7 26 Noroeste 44 Noroeste 0 -- -- 65
2019-08-13 20:00:00 18.1 35 Norte 48 Noroeste 0 -- -- 55
2019-08-13 19:00:00 19.1 26 Norte 44 Norte 0 -- -- 54
2019-08-13 18:00:00 20.1 26 Noroeste 45 Noroeste 0 -- -- 50
2019-08-13 17:00:00 20.9 30 Noroeste 48 Noroeste 0 -- -- 48
2019-08-13 16:00:00 20.7 26 Noroeste 48 Noroeste 0 -- -- 48
2019-08-13 15:00:00 20.4 31 Noroeste 46 Noroeste 0 -- -- 48
2019-08-13 14:00:00 19.7 27 Norte 46 Noroeste 0 -- -- 49
2019-08-13 13:00:00 19.3 23 Noroeste 44 Noroeste 0 -- -- 50
2019-08-13 12:00:00 18.6 23 Noroeste 39 Noroeste 0 -- -- 54
2019-08-13 11:00:00 17 22 Noroeste 33 Noroeste 0 -- -- 60
2019-08-13 10:00:00 14.2 21 Noroeste 30 Noroeste 0 -- -- 73
2019-08-13 09:00:00 13.1 20 Noroeste 32 Noroeste 0 -- -- 76
2019-08-13 08:00:00 12.4 21 Noroeste 27 Noroeste 0 -- -- 80
2019-08-13 07:00:00 11.8 22 Noroeste 27 Noroeste 0 -- -- 83
2019-08-13 06:00:00 11.8 19 Noroeste 31 Noroeste 0 -- -- 83
2019-08-13 05:00:00 12.4 22 Noroeste 33 Noroeste 0 -- -- 80
2019-08-13 04:00:00 12.6 22 Noroeste 39 Noroeste 0 -- -- 80
2019-08-13 03:00:00 13 28 Noroeste 40 Noroeste 0 -- -- 80
2019-08-13 02:00:00 12.8 26 Noroeste 39 Noroeste 0 -- -- 85
2019-08-13 01:00:00 12.8 24 Noroeste 41 Noroeste 0 -- -- 85
2019-08-13 00:00:00 13.5 27 Noroeste 47 Noroeste 0 -- -- 76
2019-08-12 23:00:00 14 31 Norte 44 Norte 0 -- -- 70
2019-08-12 22:00:00 13.6 21 Noroeste 45 Noroeste 0 -- -- 74
2019-08-12 21:00:00 14.6 35 Norte 51 Noroeste 0 -- -- 70
2019-08-12 20:00:00 16.3 26 Norte 53 Noroeste 0 -- -- 63
2019-08-12 19:00:00 16.7 32 Noroeste 54 Noroeste 0 -- -- 60
2019-08-12 18:00:00 17.3 32 Norte 59 Noroeste 0 -- -- 60
2019-08-12 17:00:00 19 37 Noroeste 60 Noroeste 0 -- -- 54
2019-08-12 16:00:00 19.3 36 Noroeste 62 Noroeste 0 -- -- 54
2019-08-12 15:00:00 19 36 Noroeste 54 Noroeste 0 -- -- 54
2019-08-12 14:00:00 18.9 35 Noroeste 61 Noroeste 0 -- -- 54
2019-08-12 13:00:00 18.4 37 Noroeste 57 Noroeste 0 -- -- 55
2019-08-12 12:00:00 17.1 31 Noroeste 50 Noroeste 0 -- -- 63
2019-08-12 11:00:00 15.8 35 Noroeste 50 Noroeste 0 -- -- 66
2019-08-12 10:00:00 15.2 31 Noroeste 42 Noroeste 0 -- -- 72
2019-08-12 09:00:00 13.6 29 Noroeste 44 Oeste 0 -- -- 78
2019-08-12 08:00:00 13.5 25 Noroeste 37 Oeste 0 -- -- 77
2019-08-12 07:00:00 13.9 32 Noroeste 43 Noroeste 0 -- -- 82
2019-08-12 06:00:00 14.1 27 Noroeste 36 Noroeste 0 -- -- 85
2019-08-12 05:00:00 14.1 26 Noroeste 40 Noroeste 0 -- -- 82
2019-08-12 04:00:00 14.6 30 Noroeste 41 Noroeste 0 -- -- 83
2019-08-12 03:00:00 15 27 Noroeste 37 Noroeste 0 -- -- 80
2019-08-12 02:00:00 14.9 26 Noroeste 37 Noroeste 0 -- -- 82
2019-08-12 01:00:00 15.2 26 Noroeste 37 Noroeste 0 -- -- 81
2019-08-12 00:00:00 15.5 25 Noroeste 36 Noroeste 0 -- -- 81
2019-08-11 23:00:00 15.5 22 Noroeste 30 Noroeste 0 -- -- 84
2019-08-11 22:00:00 16.3 21 Noroeste 31 Norte 0 -- -- 80
2019-08-11 21:00:00 17.8 24 Norte 36 Norte 0 -- -- 69
2019-08-11 20:00:00 19.2 24 Norte 41 Norte 0 -- -- 64
2019-08-11 19:00:00 20.1 28 Norte 44 Noroeste 0 -- -- 62
2019-08-11 18:00:00 22.5 24 Noroeste 43 Noroeste 0 -- -- 52
2019-08-11 17:00:00 22.7 28 Noroeste 44 Noroeste 0 -- -- 54
2019-08-11 16:00:00 23.5 25 Noroeste 39 Noroeste 0 -- -- 52
2019-08-11 15:00:00 22.8 24 Noroeste 40 Noroeste 0 -- -- 56
2019-08-11 14:00:00 22.7 22 Noroeste 35 Noroeste 0 -- -- 59
2019-08-11 13:00:00 21.9 19 Noroeste 28 Noroeste 0 -- -- 63
2019-08-11 12:00:00 20.5 17 Noroeste 25 Noroeste 0 -- -- 75
2019-08-11 11:00:00 17.8 15 Noroeste 27 Noroeste 0 -- -- 83
2019-08-11 10:00:00 16.9 21 Noroeste 27 Noroeste 0 -- -- 88
2019-08-11 09:00:00 15.4 15 Noroeste 31 Oeste 0.4 -- -- 94
2019-08-11 08:00:00 16 24 Noroeste 32 Noroeste 0 -- -- 89
2019-08-11 07:00:00 15.8 22 Noroeste 34 Noroeste 0 -- -- 90
2019-08-11 06:00:00 15.8 20 Noroeste 29 Noroeste 0 -- -- 89
2019-08-11 05:00:00 16 18 Noroeste 29 Noroeste 0 -- -- 89
2019-08-11 04:00:00 15.9 21 Noroeste 32 Noroeste 0 -- -- 89
2019-08-11 03:00:00 15.7 21 Noroeste 30 Noroeste 0 -- -- 91
2019-08-11 02:00:00 15.9 22 Noroeste 33 Oeste 0 -- -- 90
2019-08-11 01:00:00 16 13 Noroeste 31 Noroeste 0 -- -- 91
2019-08-11 00:00:00 16.1 23 Noroeste 33 Noroeste 0 -- -- 91
2019-08-10 23:00:00 16.7 23 Noroeste 34 Noroeste 0 -- -- 86
2019-08-10 22:00:00 17.6 27 Noroeste 37 Noroeste 0 -- -- 82
2019-08-10 21:00:00 19.6 21 Noroeste 35 Noroeste 0 -- -- 74
2019-08-10 20:00:00 22.5 22 Norte 32 Noroeste 0 -- -- 62
2019-08-10 19:00:00 25 18 Noroeste 39 Oeste 0 -- -- 54
2019-08-10 18:00:00 25 30 Noroeste 41 Noroeste 0 -- -- 53
2019-08-10 17:00:00 26.1 23 Oeste 30 Oeste 0 -- -- 46
2019-08-10 16:00:00 26.6 17 Oeste 34 Noroeste 0 -- -- 45
2019-08-10 15:00:00 25.2 19 Noroeste 37 Noroeste 0 -- -- 48
2019-08-10 14:00:00 25 19 Noroeste 33 Oeste 0 -- -- 47
2019-08-10 13:00:00 23.5 15 Noroeste 26 Noroeste 0 -- -- 62
2019-08-10 12:00:00 21.7 14 Oeste 27 Noroeste 0 -- -- 72
2019-08-10 11:00:00 19.3 19 Noroeste 27 Noroeste 0 -- -- 83
2019-08-10 10:00:00 19.2 0 Calma 9 Sudeste 0 -- -- 88
2019-08-10 09:00:00 15.9 2 Oeste 6 Sudoeste 0 -- -- 97
2019-08-10 08:00:00 15 2 Sur 7 Norte 0 -- -- 97
2019-08-10 07:00:00 14.7 2 Oeste 9 Noroeste 0 -- -- 96
2019-08-10 06:00:00 14.5 2 Noroeste 5 Noroeste 0 -- -- 96
2019-08-10 05:00:00 13.9 3 Sur 12 Noroeste 0 -- -- 96
2019-08-10 04:00:00 13.6 4 Sudeste 8 Sudeste 0 -- -- 94
2019-08-10 03:00:00 14.2 5 Sudeste 9 Este 0 -- -- 93
2019-08-10 02:00:00 14.8 3 Este 10 Sur 0 -- -- 89
2019-08-10 01:00:00 15.3 6 Sudeste 9 Sur 0 -- -- 87
2019-08-10 00:00:00 17.1 8 Sur 18 Sur 0.2 -- -- 88
2019-08-09 23:00:00 17.8 10 Nordeste 54 Noroeste 0.8 -- -- 85
2019-08-09 22:00:00 21.7 9 Noroeste 26 Oeste 0 -- -- 66
2019-08-09 21:00:00 23 22 Oeste 41 Oeste 3 -- -- 61
2019-08-09 20:00:00 22.4 33 Sudeste 49 Sur 0 -- -- 78
2019-08-09 19:00:00 29.3 19 Noroeste 35 Oeste 0 -- -- 50
2019-08-09 18:00:00 30.9 21 Oeste 29 Oeste 0 -- -- 41
2019-08-09 17:00:00 31.2 12 Sur 31 Sudoeste 0 -- -- 38
2019-08-09 16:00:00 34.2 17 Oeste 35 Sur 0 -- -- 34
2019-08-09 15:00:00 33.4 19 Sudoeste 40 Sudoeste 0 -- -- 34
2019-08-09 14:00:00 32.8 21 Sur 53 Sudeste 0 -- -- 35
2019-08-09 13:00:00 31.4 20 Sudoeste 37 Sudoeste 0 -- -- 38
2019-08-09 12:00:00 31.1 19 Sur 36 Sudoeste 0 -- -- 36
2019-08-09 11:00:00 28.7 26 Sur 40 Sudoeste 0 -- -- 43
2019-08-09 10:00:00 28.3 22 Sur 35 Sudeste 0 -- -- 46
2019-08-09 09:00:00 26.1 18 Sudeste 33 Sudeste 0 -- -- 50
2019-08-09 08:00:00 23.5 12 Sudeste 19 Sudeste 0 -- -- 57
2019-08-09 07:00:00 22.7 6 Este 10 Este 0 -- -- 59
2019-08-09 06:00:00 23.6 2 Oeste 14 Sur 0 -- -- 56
2019-08-09 05:00:00 24.8 10 Sur 27 Sur 0 -- -- 52
2019-08-09 04:00:00 25 6 Sur 21 Sudeste 0 -- -- 51
2019-08-09 03:00:00 26.8 16 Sur 31 Sur 0 -- -- 46
2019-08-09 02:00:00 25.6 12 Sudeste 28 Sudeste 0 -- -- 49
2019-08-09 01:00:00 26.2 21 Sudeste 34 Sudeste 0 -- -- 47
2019-08-09 00:00:00 26.6 23 Sudeste 30 Sudeste 0 -- -- 47
2019-08-08 23:00:00 25.3 9 Sudeste 15 Sudeste 0 -- -- 53
2019-08-08 22:00:00 25.6 7 Sudeste 10 Sur 0 -- -- 54
2019-08-08 21:00:00 27.9 5 Sur 18 Sur 0 -- -- 48
2019-08-08 20:00:00 31.6 13 Sur 27 Sudeste 0 -- -- 38
2019-08-08 19:00:00 32.2 17 Sudeste 30 Sudeste 0 -- -- 37
2019-08-08 18:00:00 31.4 8 Sudoeste 22 Sudoeste 0 -- -- 39
2019-08-08 17:00:00 32.3 17 Oeste 35 Sur 0 -- -- 37
2019-08-08 16:00:00 31.7 15 Sudoeste 37 Sur 0 -- -- 38
2019-08-08 15:00:00 30.7 19 Sudoeste 32 Sudoeste 0 -- -- 40
2019-08-08 14:00:00 30.7 13 Sudoeste 35 Sur 0 -- -- 40
2019-08-08 13:00:00 28.9 15 Sudeste 28 Este 0 -- -- 42
2019-08-08 12:00:00 27.7 15 Sudeste 27 Sudeste 0 -- -- 45
2019-08-08 11:00:00 27.4 13 Sudeste 22 Sudeste 0 -- -- 47
2019-08-08 10:00:00 25.5 10 Sur 22 Sudoeste 0 -- -- 50
2019-08-08 09:00:00 23.1 9 Sur 17 Sudoeste 0 -- -- 57
2019-08-08 08:00:00 19.3 7 Este 9 Este 0 -- -- 75
2019-08-08 07:00:00 17.8 7 Sudeste 10 Sudeste 0 -- -- 82
2019-08-08 06:00:00 19 5 Sudeste 11 Sudeste 0 -- -- 80
2019-08-08 05:00:00 19.9 6 Sur 9 Sur 0 -- -- 75
2019-08-08 04:00:00 19.4 6 Sudeste 12 Sudeste 0 -- -- 80
2019-08-08 03:00:00 20.5 0 Calma 10 Norte 0 -- -- 75
2019-08-08 02:00:00 21.2 6 Norte 9 Norte 0 -- -- 70
2019-08-08 01:00:00 22.2 0 Calma 10 Norte 0 -- -- 63
2019-08-08 00:00:00 22.8 4 Noroeste 10 Noroeste 0 -- -- 62
2019-08-07 23:00:00 22.6 4 Norte 9 Sudeste 0 -- -- 68
2019-08-07 22:00:00 23.9 5 Sudeste 12 Noroeste 0 -- -- 63
2019-08-07 21:00:00 25.1 9 Noroeste 21 Oeste 0 -- -- 58
2019-08-07 20:00:00 26.4 17 Oeste 28 Oeste 0 -- -- 53
2019-08-07 19:00:00 27.3 16 Oeste 22 Oeste 0 -- -- 49
2019-08-07 18:00:00 28.1 10 Noroeste 20 Noroeste 0 -- -- 43
2019-08-07 17:00:00 28.1 17 Oeste 26 Noroeste 0 -- -- 42
2019-08-07 16:00:00 28.2 17 Noroeste 30 Oeste 0 -- -- 41
2019-08-07 15:00:00 29.9 14 Oeste 27 Noroeste 0 -- -- 39
2019-08-07 14:00:00 28 13 Noroeste 23 Oeste 0 -- -- 45
2019-08-07 13:00:00 25.7 14 Noroeste 24 Oeste 0 -- -- 56
2019-08-07 12:00:00 23.8 15 Noroeste 24 Noroeste 0 -- -- 64
2019-08-07 11:00:00 22.2 18 Noroeste 26 Noroeste 0 -- -- 68
2019-08-07 10:00:00 19.2 18 Noroeste 27 Noroeste 0 -- -- 79
2019-08-07 09:00:00 18 20 Noroeste 27 Noroeste 0 -- -- 84
2019-08-07 08:00:00 17.3 15 Noroeste 22 Noroeste 0 -- -- 87
2019-08-07 07:00:00 17.9 15 Noroeste 24 Noroeste 0 -- -- 85
2019-08-07 06:00:00 17.8 8 Noroeste 17 Noroeste 0 -- -- 87
2019-08-07 05:00:00 18.2 6 Este 15 Oeste 0 -- -- 84
2019-08-07 04:00:00 18.4 6 Noroeste 28 Noroeste 0 -- -- 83
2019-08-07 03:00:00 18 22 Noroeste 39 Noroeste 0 -- -- 88
2019-08-07 02:00:00 18.3 27 Noroeste 40 Noroeste 0 -- -- 87
2019-08-07 01:00:00 18.6 30 Noroeste 43 Noroeste 0 -- -- 87
2019-08-07 00:00:00 19 27 Noroeste 46 Noroeste 0 -- -- 87
2019-08-06 23:00:00 20.3 35 Noroeste 45 Noroeste 0 -- -- 84
2019-08-06 22:00:00 21.7 27 Noroeste 43 Noroeste 0 -- -- 80
2019-08-06 21:00:00 23.3 30 Noroeste 42 Noroeste 0 -- -- 73
2019-08-06 20:00:00 25.1 35 Noroeste 45 Noroeste 0 -- -- 64
2019-08-06 19:00:00 27.6 28 Noroeste 39 Oeste 0 -- -- 57
2019-08-06 18:00:00 31 13 Oeste 22 Oeste 0 -- -- 36
2019-08-06 17:00:00 31.7 7 Oeste 25 Sudoeste 0 -- -- 36
2019-08-06 16:00:00 32.2 6 Norte 40 Sudeste 0 -- -- 39
2019-08-06 15:00:00 31.5 10 Sur 19 Sudeste 0 -- -- 41
2019-08-06 14:00:00 31.2 5 Oeste 22 Oeste 0 -- -- 43
2019-08-06 13:00:00 29.3 8 Oeste 27 Sur 0 -- -- 48
2019-08-06 12:00:00 27.7 12 Sur 26 Sudeste 0 -- -- 48
2019-08-06 11:00:00 26.2 18 Sudeste 30 Sudeste 0 -- -- 52
2019-08-06 10:00:00 21.9 4 Sudeste 12 Sudeste 0 -- -- 72
2019-08-06 09:00:00 19.2 3 Nordeste 13 Sudeste 0 -- -- 86
2019-08-06 08:00:00 17 3 Sur 7 Sur 0 -- -- 93
2019-08-06 07:00:00 17 3 Sur 5 Sur 0 -- -- 92
2019-08-06 06:00:00 16.8 0 Calma 5 Sur 0 -- -- 93
2019-08-06 05:00:00 16.3 0 Calma 6 Sudeste 0 -- -- 94
2019-08-06 04:00:00 16.5 2 Sudeste 9 Noroeste 0 -- -- 94
2019-08-06 03:00:00 17 9 Noroeste 21 Noroeste 0 -- -- 93
2019-08-06 02:00:00 17.4 16 Noroeste 22 Noroeste 0 -- -- 91
2019-08-06 01:00:00 17.8 18 Noroeste 29 Noroeste 0 -- -- 90
2019-08-06 00:00:00 18.4 19 Noroeste 27 Noroeste 0 -- -- 88
2019-08-05 23:00:00 18.5 14 Noroeste 31 Noroeste 0 -- -- 87
2019-08-05 22:00:00 19.2 27 Noroeste 39 Noroeste 0 -- -- 85
2019-08-05 21:00:00 20.5 28 Noroeste 41 Noroeste 0 -- -- 80
2019-08-05 20:00:00 22.6 31 Noroeste 49 Noroeste 0 -- -- 72
2019-08-05 19:00:00 25.2 38 Noroeste 49 Noroeste 0 -- -- 64
2019-08-05 18:00:00 29.4 28 Noroeste 42 Oeste 0 -- -- 53
2019-08-05 17:00:00 31.8 20 Oeste 34 Oeste 0 -- -- 47
2019-08-05 16:00:00 32 13 Noroeste 22 Noroeste 0 -- -- 42
2019-08-05 15:00:00 31.5 12 Oeste 28 Oeste 0 -- -- 42
2019-08-05 14:00:00 29.5 10 Noroeste 21 Oeste 0 -- -- 48
2019-08-05 13:00:00 27.5 10 Noroeste 21 Noroeste 0 -- -- 54
2019-08-05 12:00:00 25.9 11 Oeste 18 Oeste 0 -- -- 59
2019-08-05 11:00:00 23.4 5 Sudeste 10 Sudeste 0 -- -- 67
2019-08-05 10:00:00 20.7 4 Sur 8 Sudeste 0 -- -- 75
2019-08-05 09:00:00 18.7 3 Noroeste 8 Noroeste 0 -- -- 83
2019-08-05 08:00:00 16.5 4 Noroeste 7 Noroeste 0 -- -- 92
2019-08-05 07:00:00 16.2 0 Calma 2 Sudeste 0 -- -- 93
2019-08-05 06:00:00 16 0 Calma 8 Noroeste 0 -- -- 93
2019-08-05 05:00:00 16.2 5 Oeste 17 Noroeste 0 -- -- 92
2019-08-05 04:00:00 16.6 12 Noroeste 24 Noroeste 0 -- -- 91
2019-08-05 03:00:00 17.4 17 Noroeste 26 Noroeste 0 -- -- 88
2019-08-05 02:00:00 17.7 22 Noroeste 33 Noroeste 0 -- -- 87
2019-08-05 01:00:00 18 26 Noroeste 33 Noroeste 0 -- -- 87
2019-08-05 00:00:00 18.7 21 Noroeste 35 Noroeste 0 -- -- 85
2019-08-04 23:00:00 18.7 26 Noroeste 42 Noroeste 0 -- -- 85
2019-08-04 22:00:00 18.8 30 Noroeste 43 Noroeste 0 -- -- 85
2019-08-04 21:00:00 20.2 35 Noroeste 42 Noroeste 0 -- -- 80
2019-08-04 20:00:00 22.1 33 Noroeste 55 Noroeste 0 -- -- 74
2019-08-04 19:00:00 24.2 39 Noroeste 55 Noroeste 0 -- -- 68
2019-08-04 18:00:00 28.1 35 Noroeste 44 Noroeste 0 -- -- 57
2019-08-04 17:00:00 32.1 22 Oeste 39 Oeste 0 -- -- 47
2019-08-04 16:00:00 32.1 13 Oeste 24 Oeste 0 -- -- 41
2019-08-04 15:00:00 31.8 12 Oeste 23 Oeste 0 -- -- 46
2019-08-04 14:00:00 29.1 15 Oeste 25 Noroeste 0 -- -- 52
2019-08-04 13:00:00 26.4 17 Noroeste 23 Noroeste 0 -- -- 59
2019-08-04 12:00:00 24.1 12 Noroeste 20 Noroeste 0 -- -- 66
2019-08-04 11:00:00 22.6 11 Noroeste 21 Noroeste 0 -- -- 73
2019-08-04 10:00:00 20.6 4 Noroeste 7 Noroeste 0 -- -- 80
2019-08-04 09:00:00 17.9 2 Sur 4 Sur 0 -- -- 94
2019-08-04 08:00:00 16.4 4 Este 6 Este 0 -- -- 97
2019-08-04 07:00:00 15.9 4 Sudeste 6 Sudeste 0 -- -- 96
2019-08-04 06:00:00 16.6 0 Calma 12 Noroeste 0 -- -- 96
2019-08-04 05:00:00 16.7 8 Noroeste 17 Oeste 0 -- -- 95
2019-08-04 04:00:00 17.6 14 Noroeste 22 Noroeste 0 -- -- 93
2019-08-04 03:00:00 18.2 18 Noroeste 25 Noroeste 0 -- -- 92
2019-08-04 02:00:00 18.9 15 Noroeste 24 Noroeste 0 -- -- 89
2019-08-04 01:00:00 20.1 19 Noroeste 27 Noroeste 0 -- -- 86
2019-08-04 00:00:00 21.7 18 Noroeste 32 Noroeste 0 -- -- 77
2019-08-03 23:00:00 22.4 21 Noroeste 27 Noroeste 0 -- -- 75
2019-08-03 22:00:00 23.9 19 Noroeste 26 Noroeste 0 -- -- 68
2019-08-03 21:00:00 26.2 15 Norte 30 Norte 0 -- -- 58
2019-08-03 20:00:00 28.4 22 Norte 35 Norte 0 -- -- 52
2019-08-03 19:00:00 31.8 23 Noroeste 31 Noroeste 0 -- -- 40
2019-08-03 18:00:00 33.6 15 Oeste 24 Oeste 0 -- -- 29
2019-08-03 17:00:00 33.2 13 Sudoeste 22 Sur 0 -- -- 30
2019-08-03 16:00:00 32.8 4 Oeste 23 Sudoeste 0 -- -- 33
2019-08-03 15:00:00 32.7 6 Sur 28 Sudeste 0 -- -- 32
2019-08-03 14:00:00 30.5 8 Este 19 Sudeste 0 -- -- 37
2019-08-03 13:00:00 29 7 Sudeste 17 Este 0 -- -- 40
2019-08-03 12:00:00 25.5 5 Noroeste 10 Oeste 0 -- -- 54
2019-08-03 11:00:00 22.6 3 Noroeste 9 Noroeste 0 -- -- 64
2019-08-03 10:00:00 19.3 3 Noroeste 6 Noroeste 0 -- -- 77
2019-08-03 09:00:00 15.8 3 Noroeste 7 Sudeste 0 -- -- 93
2019-08-03 08:00:00 12.8 6 Sudeste 9 Sudeste 0 -- -- 97
2019-08-03 07:00:00 12 7 Sudeste 9 Sudeste 0 -- -- 97
2019-08-03 06:00:00 12.4 7 Sudeste 9 Sudeste 0 -- -- 97
2019-08-03 05:00:00 13 8 Sudeste 9 Sudeste 0 -- -- 97
2019-08-03 04:00:00 13.9 3 Sudeste 6 Este 0 -- -- 97
2019-08-03 03:00:00 14.1 3 Sudeste 5 Nordeste 0 -- -- 95
2019-08-03 02:00:00 15.5 4 Oeste 18 Noroeste 0 -- -- 94
2019-08-03 01:00:00 16.6 17 Noroeste 25 Noroeste 0 -- -- 92
2019-08-03 00:00:00 17.2 19 Noroeste 29 Noroeste 0 -- -- 90
2019-08-02 23:00:00 18.1 17 Noroeste 27 Noroeste 0 -- -- 86
2019-08-02 22:00:00 19.8 19 Noroeste 26 Noroeste 0 -- -- 78
2019-08-02 21:00:00 22.2 21 Oeste 30 Oeste 0 -- -- 67
2019-08-02 20:00:00 24.8 23 Oeste 31 Noroeste 0 -- -- 56
2019-08-02 19:00:00 26.8 20 Noroeste 35 Oeste 0 -- -- 49
2019-08-02 18:00:00 27.6 25 Noroeste 36 Noroeste 0 -- -- 46
2019-08-02 17:00:00 27.5 25 Noroeste 40 Oeste 0 -- -- 47
2019-08-02 16:00:00 27.1 26 Noroeste 39 Oeste 0 -- -- 48
2019-08-02 15:00:00 26.3 27 Noroeste 37 Oeste 0 -- -- 53
2019-08-02 14:00:00 25.2 24 Noroeste 36 Noroeste 0 -- -- 56
2019-08-02 13:00:00 24.4 22 Oeste 33 Oeste 0 -- -- 58
2019-08-02 12:00:00 23.3 17 Noroeste 28 Oeste 0 -- -- 62
2019-08-02 11:00:00 20.9 14 Noroeste 25 Oeste 0 -- -- 69
2019-08-02 10:00:00 18.7 14 Noroeste 25 Oeste 0 -- -- 79
2019-08-02 09:00:00 16.8 17 Noroeste 26 Noroeste 0 -- -- 87
2019-08-02 08:00:00 16 16 Noroeste 25 Noroeste 0 -- -- 90
2019-08-02 07:00:00 15.8 14 Noroeste 23 Noroeste 0 -- -- 90
2019-08-02 06:00:00 16.2 18 Noroeste 27 Noroeste 0 -- -- 89
2019-08-02 05:00:00 16.3 21 Noroeste 31 Noroeste 0 -- -- 88
2019-08-02 04:00:00 16.1 21 Noroeste 32 Oeste 0 -- -- 90
2019-08-02 03:00:00 16.3 24 Noroeste 31 Noroeste 0 -- -- 90
2019-08-02 02:00:00 16.6 26 Noroeste 36 Oeste 0 -- -- 90
2019-08-02 01:00:00 17.2 24 Noroeste 36 Oeste 0 -- -- 88
2019-08-02 00:00:00 17.1 17 Noroeste 33 Oeste 0 -- -- 87
2019-08-01 23:00:00 17.6 24 Noroeste 34 Noroeste 0 -- -- 86
2019-08-01 22:00:00 18.3 27 Noroeste 42 Noroeste 0 -- -- 84
2019-08-01 21:00:00 19 31 Noroeste 48 Noroeste 0 -- -- 82
2019-08-01 20:00:00 20.7 35 Noroeste 48 Oeste 0 -- -- 77
2019-08-01 19:00:00 24.1 40 Noroeste 50 Noroeste 0 -- -- 66
2019-08-01 18:00:00 28.9 19 Oeste 35 Noroeste 0 -- -- 49
2019-08-01 17:00:00 28.8 15 Oeste 24 Noroeste 0 -- -- 49
2019-08-01 16:00:00 28.8 10 Oeste 24 Sudoeste 0 -- -- 49
2019-08-01 15:00:00 27.5 9 Sur 30 Sur 0 -- -- 55
2019-08-01 14:00:00 25.7 7 Sudeste 26 Este 0 -- -- 60
2019-08-01 13:00:00 23.6 13 Sudeste 25 Sudeste 0 -- -- 60
2019-08-01 12:00:00 18.8 21 Sur 38 Sudeste 0 -- -- 80
2019-08-01 11:00:00 16.2 12 Sudeste 25 Este 2.8 -- -- 91
2019-08-01 10:00:00 16 18 Noroeste 28 Noroeste 0.2 -- -- 87
2019-08-01 09:00:00 15.9 6 Norte 28 Noroeste 0 -- -- 86
2019-08-01 08:00:00 15 24 Noroeste 31 Noroeste 0 -- -- 91
2019-08-01 07:00:00 14.4 15 Noroeste 28 Noroeste 1 -- -- 94
2019-08-01 06:00:00 13.8 0 Calma 6 Norte 0 -- -- 93
2019-08-01 05:00:00 13.5 3 Norte 7 Norte 0 -- -- 93
2019-08-01 04:00:00 13.4 0 Calma 6 Este 0 -- -- 92
2019-08-01 03:00:00 13.5 5 Sudeste 6 Sudeste 0 -- -- 91
2019-08-01 02:00:00 14 2 Sudeste 10 Noroeste 0 -- -- 89
2019-08-01 01:00:00 14.8 5 Noroeste 16 Noroeste 0 -- -- 87
2019-08-01 00:00:00 15.8 14 Noroeste 23 Noroeste 0 -- -- 82
2019-07-31 23:00:00 16.9 18 Noroeste 29 Noroeste 0 -- -- 77
2019-07-31 22:00:00 18.3 23 Noroeste 34 Oeste 0 -- -- 71
2019-07-31 21:00:00 19.8 24 Noroeste 32 Noroeste 0 -- -- 66
2019-07-31 20:00:00 22.7 15 Noroeste 27 Noroeste 0 -- -- 57
2019-07-31 19:00:00 23.7 17 Noroeste 29 Noroeste 0 -- -- 53
2019-07-31 18:00:00 24.9 19 Oeste 30 Oeste 0 -- -- 49
2019-07-31 17:00:00 25.4 14 Noroeste 28 Noroeste 0 -- -- 43
2019-07-31 16:00:00 25.8 20 Noroeste 30 Noroeste 0 -- -- 41
2019-07-31 15:00:00 27.4 12 Sudoeste 21 Noroeste 0 -- -- 37
2019-07-31 14:00:00 24.2 13 Noroeste 21 Oeste 0 -- -- 41
2019-07-31 13:00:00 22.6 8 Oeste 16 Oeste 0 -- -- 47
2019-07-31 12:00:00 20.2 10 Noroeste 18 Oeste 0 -- -- 53
2019-07-31 11:00:00 17.1 13 Noroeste 20 Noroeste 0 -- -- 63
2019-07-31 10:00:00 15.2 12 Noroeste 18 Noroeste 0 -- -- 72
2019-07-31 09:00:00 13.7 12 Noroeste 21 Noroeste 0 -- -- 79
2019-07-31 08:00:00 11.3 16 Noroeste 23 Noroeste 0 -- -- 89
2019-07-31 07:00:00 11.1 18 Noroeste 24 Noroeste 0 -- -- 88
2019-07-31 06:00:00 11.2 17 Noroeste 29 Noroeste 0 -- -- 90
2019-07-31 05:00:00 11.3 19 Noroeste 29 Noroeste 0 -- -- 90
2019-07-31 04:00:00 11.3 17 Noroeste 23 Noroeste 0 -- -- 89
2019-07-31 03:00:00 12 18 Noroeste 23 Noroeste 0 -- -- 85
2019-07-31 02:00:00 12.1 19 Noroeste 29 Noroeste 0 -- -- 84
2019-07-31 01:00:00 12.5 18 Noroeste 28 Noroeste 0 -- -- 84
2019-07-31 00:00:00 13.3 20 Noroeste 35 Noroeste 0 -- -- 77
2019-07-30 23:00:00 13.9 28 Noroeste 37 Noroeste 0 -- -- 73
2019-07-30 22:00:00 14.6 26 Noroeste 44 Norte 0 -- -- 68
2019-07-30 21:00:00 15.5 32 Noroeste 53 Noroeste 0 -- -- 63
2019-07-30 20:00:00 16.8 35 Noroeste 53 Norte 0 -- -- 59
2019-07-30 19:00:00 17.7 39 Norte 52 Noroeste 0 -- -- 57
2019-07-30 18:00:00 19 32 Norte 54 Noroeste 0 -- -- 52
2019-07-30 17:00:00 20 33 Noroeste 50 Noroeste 0 -- -- 53
2019-07-30 16:00:00 19.3 26 Norte 50 Noroeste 0 -- -- 54
2019-07-30 15:00:00 20 33 Noroeste 52 Noroeste 0 -- -- 55
2019-07-30 14:00:00 19.3 32 Noroeste 45 Noroeste 0 -- -- 58
2019-07-30 13:00:00 18.4 26 Noroeste 41 Noroeste 0 -- -- 60
2019-07-30 12:00:00 17.9 25 Noroeste 40 Noroeste 0 -- -- 60
2019-07-30 11:00:00 16.3 29 Noroeste 42 Norte 0 -- -- 70
2019-07-30 10:00:00 15.8 31 Noroeste 42 Noroeste 0 -- -- 70
2019-07-30 09:00:00 14.9 26 Noroeste 37 Noroeste 0 -- -- 76
2019-07-30 08:00:00 14.5 23 Noroeste 36 Noroeste 0 -- -- 78
2019-07-30 07:00:00 14.4 27 Noroeste 41 Noroeste 0 -- -- 77
2019-07-30 06:00:00 14.6 27 Noroeste 44 Noroeste 0 -- -- 76
2019-07-30 05:00:00 14.9 32 Noroeste 43 Noroeste 0 -- -- 79
2019-07-30 04:00:00 14.3 24 Noroeste 33 Noroeste 0 -- -- 81
2019-07-30 03:00:00 14.8 27 Noroeste 51 Noroeste 0 -- -- 79
2019-07-30 02:00:00 15.4 32 Noroeste 41 Noroeste 0 -- -- 82
2019-07-30 01:00:00 15.2 22 Noroeste 36 Noroeste 0 -- -- 83
2019-07-30 00:00:00 15.7 26 Noroeste 44 Noroeste 0 -- -- 80
2019-07-29 23:00:00 15.9 26 Noroeste 40 Noroeste 0 -- -- 78
2019-07-29 22:00:00 16.4 32 Noroeste 49 Oeste 0 -- -- 80
2019-07-29 21:00:00 17.5 31 Noroeste 50 Noroeste 0 -- -- 78
2019-07-29 20:00:00 18.9 32 Noroeste 50 Noroeste 0 -- -- 76
2019-07-29 19:00:00 21.5 36 Noroeste 48 Noroeste 0 -- -- 68
2019-07-29 18:00:00 24 34 Noroeste 51 Oeste 0 -- -- 61
2019-07-29 17:00:00 28.9 31 Oeste 39 Oeste 0 -- -- 42
2019-07-29 16:00:00 30.6 12 Sudoeste 26 Oeste 0 -- -- 31
2019-07-29 15:00:00 30 12 Sudoeste 25 Sudoeste 0 -- -- 29
2019-07-29 14:00:00 28.4 12 Sudoeste 29 Sur 0 -- -- 34
2019-07-29 13:00:00 27.5 9 Sur 21 Sudoeste 0 -- -- 38
2019-07-29 12:00:00 26.1 13 Sudeste 23 Sudeste 0 -- -- 43
2019-07-29 11:00:00 24.1 6 Sudeste 14 Sur 0 -- -- 47
2019-07-29 10:00:00 21.3 4 Este 10 Sudeste 0 -- -- 50
2019-07-29 09:00:00 15.8 4 Sudeste 10 Este 0 -- -- 70
2019-07-29 08:00:00 12.3 7 Este 15 Este 0 -- -- 81
2019-07-29 07:00:00 11.4 6 Este 9 Este 0 -- -- 82
2019-07-29 06:00:00 11 2 Este 10 Este 0 -- -- 84
2019-07-29 05:00:00 10.6 6 Este 12 Este 0 -- -- 84
2019-07-29 04:00:00 11.3 2 Este 14 Este 0 -- -- 83
2019-07-29 03:00:00 11 10 Sudeste 14 Sudeste 0 -- -- 82
2019-07-29 02:00:00 11 10 Sudeste 15 Sudeste 0 -- -- 84
2019-07-29 01:00:00 11.2 8 Sudeste 14 Sudeste 0 -- -- 86
2019-07-29 00:00:00 12.2 8 Sudeste 14 Este 0 -- -- 84
2019-07-28 23:00:00 15.5 4 Sudeste 18 Norte 0 -- -- 70
2019-07-28 22:00:00 17.2 13 Norte 33 Norte 0 -- -- 65
2019-07-28 21:00:00 18.8 24 Noroeste 36 Noroeste 0 -- -- 59
2019-07-28 20:00:00 19.9 22 Norte 36 Noroeste 0 -- -- 54
2019-07-28 19:00:00 20.5 24 Noroeste 38 Norte 0 -- -- 53
2019-07-28 18:00:00 21.1 24 Norte 40 Noroeste 0 -- -- 51
2019-07-28 17:00:00 21.7 22 Noroeste 40 Norte 0 -- -- 50
2019-07-28 16:00:00 20.6 26 Norte 38 Noroeste 0 -- -- 51
2019-07-28 15:00:00 19.6 21 Noroeste 33 Noroeste 0 -- -- 58
2019-07-28 14:00:00 19 19 Noroeste 33 Noroeste 0 -- -- 66
2019-07-28 13:00:00 19.1 16 Noroeste 35 Noroeste 0 -- -- 68
2019-07-28 12:00:00 18.2 25 Noroeste 39 Noroeste 0 -- -- 69
2019-07-28 11:00:00 16.8 19 Noroeste 29 Noroeste 0 -- -- 75
2019-07-28 10:00:00 14.8 13 Noroeste 28 Noroeste 0 -- -- 86
2019-07-28 09:00:00 13.4 19 Noroeste 30 Oeste 0 -- -- 93
2019-07-28 08:00:00 12.8 17 Noroeste 29 Noroeste 0 -- -- 96
2019-07-28 07:00:00 12.2 18 Noroeste 26 Noroeste 0 -- -- 95
2019-07-28 06:00:00 12.6 22 Noroeste 32 Noroeste 0 -- -- 96
2019-07-28 05:00:00 12.8 23 Noroeste 37 Noroeste 0 -- -- 95
2019-07-28 04:00:00 12.9 26 Noroeste 36 Noroeste 0 -- -- 93
2019-07-28 03:00:00 12.9 22 Noroeste 32 Noroeste 0 -- -- 92
2019-07-28 02:00:00 12.9 25 Noroeste 32 Noroeste 0 -- -- 90
2019-07-28 01:00:00 12.9 25 Noroeste 34 Noroeste 0 -- -- 90
2019-07-28 00:00:00 13.4 24 Noroeste 32 Norte 0 -- -- 89
2019-07-27 23:00:00 13.6 24 Noroeste 41 Noroeste 0 -- -- 87
2019-07-26 12:00:00 -- -- -- -- -- -- -- -- --
2019-07-26 11:00:00 20.9 14 Sur 22 Sur 0 -- -- 82
2019-07-26 10:00:00 18.5 6 Oeste 21 Noroeste 0 -- -- 94
2019-07-26 09:00:00 18.6 5 Norte 15 Sudeste 0.2 -- -- 90
2019-07-26 08:00:00 18.5 4 Nordeste 16 Norte 0 -- -- 89
2019-07-26 07:00:00 18.4 15 Noroeste 25 Norte 0 -- -- 89
2019-07-26 06:00:00 18.4 19 Noroeste 42 Oeste 0 -- -- 88
2019-07-26 05:00:00 18.5 28 Noroeste 40 Oeste 0 -- -- 90
2019-07-26 04:00:00 18.8 26 Noroeste 36 Noroeste 0 -- -- 91
2019-07-26 03:00:00 19.7 23 Noroeste 33 Noroeste 0 -- -- 88
2019-07-26 02:00:00 19.8 24 Noroeste 32 Noroeste 0 -- -- 88
2019-07-26 01:00:00 20 23 Noroeste 38 Oeste 0 -- -- 87
2019-07-26 00:00:00 20.5 30 Noroeste 50 Oeste 0 -- -- 85
2019-07-25 23:00:00 21.3 39 Noroeste 53 Noroeste 0 -- -- 81
2019-07-25 22:00:00 23.6 22 Noroeste 39 Noroeste 0 -- -- 77
2019-07-25 21:00:00 24.9 32 Noroeste 45 Oeste 0 -- -- 70
2019-07-25 20:00:00 29.6 25 Sudeste 53 Sudeste 0.2 -- -- 37
2019-07-25 19:00:00 27.7 35 Sur 71 Sur 0.8 -- -- 47
2019-07-25 18:00:00 35.9 19 Sudeste 37 Sudeste 0 -- -- 24
2019-07-25 17:00:00 35.4 28 Sudeste 48 Sudeste 0 -- -- 25
2019-07-25 16:00:00 35.2 31 Sudeste 47 Sudeste 0 -- -- 26
2019-07-25 15:00:00 34.8 26 Sur 38 Sur 0 -- -- 27
2019-07-25 14:00:00 33.9 23 Sudeste 39 Sur 0 -- -- 29
2019-07-25 13:00:00 33.3 22 Sur 37 Sudeste 0 -- -- 29
2019-07-25 12:00:00 31.7 20 Sudeste 36 Sur 0 -- -- 32
2019-07-25 11:00:00 30.7 22 Sudeste 37 Sudeste 0 -- -- 37
2019-07-25 10:00:00 29.6 20 Sudeste 28 Sudeste 0 -- -- 35
2019-07-25 09:00:00 -- -- -- -- -- -- -- -- --
2019-07-25 08:00:00 -- -- -- -- -- -- -- -- --
2019-07-25 07:00:00 -- -- -- -- -- -- -- -- --
2019-07-25 06:00:00 -- -- -- -- -- -- -- -- --
2019-07-25 05:00:00 -- -- -- -- -- -- -- -- --
2019-07-25 04:00:00 -- -- -- -- -- -- -- -- --
2019-07-25 03:00:00 -- -- -- -- -- -- -- -- --
2019-07-25 02:00:00 -- -- -- -- -- -- -- -- --
2019-07-25 01:00:00 -- -- -- -- -- -- -- -- --
2019-07-25 00:00:00 -- -- -- -- -- -- -- -- --
2019-07-24 23:00:00 -- -- -- -- -- -- -- -- --
2019-07-24 22:00:00 -- -- -- -- -- -- -- -- --
2019-07-24 21:00:00 -- -- -- -- -- -- -- -- --
2019-07-24 20:00:00 -- -- -- -- -- -- -- -- --
2019-07-24 19:00:00 -- -- -- -- -- -- -- -- --
2019-07-24 18:00:00 -- -- -- -- -- -- -- -- --
2019-07-24 17:00:00 -- -- -- -- -- -- -- -- --
2019-07-24 16:00:00 -- -- -- -- -- -- -- -- --
2019-07-24 15:00:00 -- -- -- -- -- -- -- -- --
2019-07-24 14:00:00 -- -- -- -- -- -- -- -- --
2019-07-24 13:00:00 -- -- -- -- -- -- -- -- --
2019-07-24 12:00:00 -- -- -- -- -- -- -- -- --
2019-07-24 11:00:00 -- -- -- -- -- -- -- -- --
2019-07-24 10:00:00 -- -- -- -- -- -- -- -- --
2019-07-24 09:00:00 -- -- -- -- -- -- -- -- --
2019-07-24 08:00:00 -- -- -- -- -- -- -- -- --
2019-07-24 07:00:00 -- -- -- -- -- -- -- -- --
2019-07-24 06:00:00 -- -- -- -- -- -- -- -- --
2019-07-24 05:00:00 -- -- -- -- -- -- -- -- --
2019-07-24 04:00:00 -- -- -- -- -- -- -- -- --
2019-07-24 03:00:00 -- -- -- -- -- -- -- -- --
2019-07-24 02:00:00 -- -- -- -- -- -- -- -- --
2019-07-24 01:00:00 -- -- -- -- -- -- -- -- --
2019-07-24 00:00:00 -- -- -- -- -- -- -- -- --
2019-07-23 23:00:00 -- -- -- -- -- -- -- -- --
2019-07-23 22:00:00 -- -- -- -- -- -- -- -- --
2019-07-23 21:00:00 29.3 37 Noroeste 57 Noroeste 0 -- -- 31
2019-07-23 20:00:00 34.2 15 Sur 25 Sur 0 -- -- 24
2019-07-23 19:00:00 35.3 16 Sudeste 31 Sudeste 0 -- -- 23
2019-07-23 18:00:00 35.5 23 Sur 32 Sudeste 0 -- -- 23
2019-07-23 17:00:00 35.5 20 Sur 36 Sudeste 0 -- -- 23
2019-07-23 16:00:00 35.8 26 Sur 41 Sur 0 -- -- 23
2019-07-23 15:00:00 34.8 25 Sur 40 Sur 0 -- -- 24
2019-07-23 14:00:00 33.9 29 Sur 46 Sudoeste 0 -- -- 23
2019-07-23 13:00:00 33 26 Sudeste 44 Sudeste 0 -- -- 25
2019-07-23 12:00:00 31.8 24 Sur 42 Sudeste 0 -- -- 29
2019-07-23 11:00:00 30.8 26 Sur 35 Sur 0 -- -- 28
2019-07-23 10:00:00 29.5 17 Sudeste 29 Sudeste 0 -- -- 29
2019-07-23 09:00:00 27.2 14 Sudeste 20 Sudeste 0 -- -- 35
2019-07-23 08:00:00 24.9 19 Sudeste 30 Este 0 -- -- 37
2019-07-23 07:00:00 23.3 18 Sudeste 27 Sudeste 0 -- -- 37
2019-07-23 06:00:00 24.8 19 Sudeste 29 Sur 0 -- -- 34
2019-07-23 05:00:00 24.9 21 Sur 32 Sudeste 0 -- -- 35
2019-07-23 04:00:00 25.6 28 Sudeste 34 Sudeste 0 -- -- 34
2019-07-23 03:00:00 26.8 19 Sur 32 Sudeste 0 -- -- 33
2019-07-23 02:00:00 26.5 18 Sudeste 26 Sudeste 0 -- -- 36
2019-07-23 01:00:00 26.3 14 Sudeste 22 Sudeste 0 -- -- 37
2019-07-23 00:00:00 26.8 17 Sudeste 20 Sudeste 0 -- -- 35
2019-07-22 23:00:00 25.4 12 Sudeste 18 Sudeste 0 -- -- 39
2019-07-22 22:00:00 26 10 Sudeste 14 Sudeste 0 -- -- 44
2019-07-22 21:00:00 29.6 5 Sur 14 Sudoeste 0 -- -- 36
2019-07-22 20:00:00 33.5 13 Sur 31 Sur 0 -- -- 30
2019-07-22 19:00:00 34.8 22 Sudeste 37 Sur 0 -- -- 22
2019-07-22 18:00:00 35.7 22 Sudeste 34 Sudeste 0 -- -- 22
2019-07-22 17:00:00 35.5 24 Sudeste 41 Sudeste 0 -- -- 24
2019-07-22 16:00:00 34.8 22 Sudeste 39 Sur 0 -- -- 25
2019-07-22 15:00:00 34.1 23 Sur 36 Sur 0 -- -- 27
2019-07-22 14:00:00 33.2 23 Sur 37 Sudeste 0 -- -- 29
2019-07-22 13:00:00 31.2 24 Sur 36 Sur 0 -- -- 35
2019-07-22 12:00:00 30.5 23 Sudeste 32 Sudeste 0 -- -- 39
2019-07-22 11:00:00 28.5 19 Sudeste 30 Sudeste 0 -- -- 45
2019-07-22 10:00:00 25.2 15 Sudeste 24 Sudeste 0 -- -- 65
2019-07-22 09:00:00 20.3 12 Sudeste 14 Sudeste 0 -- -- 88
2019-07-22 08:00:00 18.3 6 Sudeste 13 Sudeste 0 -- -- 94
2019-07-22 07:00:00 17.2 8 Sudeste 11 Sudeste 0 -- -- 95
2019-07-22 06:00:00 17.8 9 Noroeste 16 Noroeste 0 -- -- 94
2019-07-22 05:00:00 18 10 Noroeste 15 Noroeste 0 -- -- 94
2019-07-22 04:00:00 17.9 4 Noroeste 10 Noroeste 0 -- -- 95
2019-07-22 03:00:00 18.2 5 Noroeste 19 Noroeste 0 -- -- 94
2019-07-22 02:00:00 18.9 17 Noroeste 25 Noroeste 0 -- -- 93
2019-07-22 01:00:00 19.5 9 Noroeste 15 Noroeste 0 -- -- 91
2019-07-22 00:00:00 20.3 4 Nordeste 39 Noroeste 0 -- -- 88